Hlavní strana
METAR-TAF:

METAR-TAF

Letiště :

Ouagadougou, Burkina Faso

zeměpisná šířka: 12-21N, zeměpisná délka: 001-31W, výška: 316 m

Aktuální stav počasí

Zpráva byla vytvořena před 30 minutami, v 19:00 UTC
Severoseverovýchodní vítr 4 kt
Teplota 31°C
Vlhkost vzduchu 16%
Tlak 1012 hPa
Viditelnost: 6000 m

METAR: DFFD 181900Z 03004KT 6000 NSC 31/02 Q1012 NOSIG

Čas: 19:30 (19:30 UTC)

Předpověď počasí

Zpráva byla vytvořena před 2 hodinami a 30 minutami, v 17:00 UTC
Předpověď platná od 18 v 18 UTC do 19 v 24 UTC
Východoseverovýchodní vítr 10 kt
Viditelnost: 8000 m
Dočasný
od 18 v 18 UTC do 18 v 21 UTC
Viditelnost: 4000 m
zákal
Dočasný
od 19 v 06 UTC do 19 v 10 UTC
Viditelnost: 3500 m
zákal

TAF: DFFD 181700Z 1818/1924 06010KT 8000 NSC TEMPO 1818/1821 4000 HZ TEMPO 1906/1910 3500 HZ

Stav a předpovědi počasí z více než 4 000 letišť (zprávy METAR a TAF).

Červené a žluté tečky na mapě představují dostupné meteorologické stanice.

Když kurzor umístíte na tečku, zobrazí se název stanice.

Pak kliknutím zobrazíte stav a předpověď počasí.

Chcete-li změnit mapu, kliknutím na zelené tlačítko se znaménkem +mapu přiblížíte, kliknutím na zelené tlačítko se znaménkem – mapu oddálíte a kliknutím na zelené šipky přejdete na sousední mapy.


METAR-TAF: